createdAt,value
2018-12-05T00:00:28.285Z,101707.35
2018-12-05T00:01:30.748Z,101704.34
2018-12-05T00:02:33.296Z,101704.08
2018-12-05T00:03:35.773Z,101698.84
2018-12-05T00:04:38.248Z,101697.20
2018-12-05T00:05:40.743Z,101705.20
2018-12-05T00:06:43.255Z,101698.88
2018-12-05T00:07:45.756Z,101699.99
2018-12-05T00:08:50.258Z,101698.92
2018-12-05T00:09:52.757Z,101702.22
2018-12-05T00:10:55.250Z,101698.95
2018-12-05T00:11:57.779Z,101705.83
2018-12-05T00:13:00.252Z,101706.12
2018-12-05T00:14:02.835Z,101703.38
2018-12-05T00:15:05.569Z,101700.92
2018-12-05T00:16:08.062Z,101702.03
2018-12-05T00:17:10.550Z,101700.66
2018-12-05T00:18:13.032Z,101698.77
2018-12-05T00:19:15.642Z,101702.03
2018-12-05T00:20:18.195Z,101702.89
2018-12-05T00:21:20.705Z,101697.09
2018-12-05T00:22:23.186Z,101691.59
2018-12-05T00:23:25.774Z,101696.28
2018-12-05T00:24:28.443Z,101703.70
2018-12-05T00:25:30.973Z,101695.75
2018-12-05T00:26:33.438Z,101697.69
2018-12-05T00:27:35.904Z,101696.87
2018-12-05T00:28:38.387Z,101700.44
2018-12-05T00:29:40.864Z,101698.54
2018-12-05T00:30:43.344Z,101699.09
2018-12-05T00:31:45.825Z,101695.80
2018-12-05T00:32:48.313Z,101695.53
2018-12-05T00:33:52.167Z,101701.59
2018-12-05T00:34:54.664Z,101696.38
2018-12-05T00:35:57.162Z,101698.87
2018-12-05T00:36:59.643Z,101702.17
2018-12-05T00:38:02.146Z,101703.29
2018-12-05T00:39:07.378Z,101701.09
2018-12-05T00:40:09.949Z,101707.97
2018-12-05T00:41:12.607Z,101700.28
2018-12-05T00:42:15.073Z,101700.58
2018-12-05T00:43:17.568Z,101699.75
2018-12-05T00:44:20.052Z,101694.52
2018-12-05T00:45:22.532Z,101697.27
2018-12-05T00:46:25.030Z,101698.38
2018-12-05T00:47:27.515Z,101694.00
2018-12-05T00:48:29.987Z,101692.36
2018-12-05T00:49:32.471Z,101692.36
2018-12-05T00:50:35.007Z,101700.05
2018-12-05T00:51:37.518Z,101697.05
2018-12-05T00:52:40.017Z,101694.59
2018-12-05T00:53:42.532Z,101695.96
2018-12-05T00:54:45.957Z,101693.51
2018-12-05T00:55:48.645Z,101695.70
2018-12-05T00:56:51.633Z,101703.12
2018-12-05T00:57:54.111Z,101698.74
2018-12-05T00:58:56.595Z,101694.92
2018-12-05T00:59:59.075Z,101690.53
2018-12-05T01:01:01.576Z,101693.28
2018-12-05T01:02:04.313Z,101697.92
2018-12-05T01:03:06.776Z,101698.38
2018-12-05T01:04:09.259Z,101696.12
2018-12-05T01:05:11.721Z,101694.97
2018-12-05T01:06:14.300Z,101698.77
2018-12-05T01:07:16.775Z,101697.58
2018-12-05T01:08:19.265Z,101699.73
2018-12-05T01:09:21.798Z,101697.20
2018-12-05T01:10:24.280Z,101694.97
2018-12-05T01:11:26.835Z,101698.47
2018-12-05T01:12:29.297Z,101695.42
2018-12-05T01:13:31.819Z,101702.55
2018-12-05T01:14:34.313Z,101694.27
2018-12-05T01:15:36.818Z,101690.95
2018-12-05T01:16:39.319Z,101690.13
2018-12-05T01:17:41.780Z,101689.02
2018-12-05T01:18:44.260Z,101688.75
2018-12-05T01:19:46.753Z,101686.00
2018-12-05T01:20:49.290Z,101694.26
2018-12-05T01:21:51.804Z,101694.52
2018-12-05T01:22:54.277Z,101692.07
2018-12-05T01:23:56.738Z,101686.56
2018-12-05T01:24:59.319Z,101688.50
2018-12-05T01:26:01.854Z,101680.81
2018-12-05T01:27:04.344Z,101683.55
2018-12-05T01:28:06.904Z,101683.30
2018-12-05T01:29:09.396Z,101677.80
2018-12-05T01:30:12.018Z,101677.28
2018-12-05T01:31:14.577Z,101677.84
2018-12-05T01:32:17.112Z,101676.76
2018-12-05T01:33:19.591Z,101672.89
2018-12-05T01:34:22.094Z,101675.13
2018-12-05T01:35:24.594Z,101678.17
2018-12-05T01:36:27.111Z,101674.34
2018-12-05T01:37:29.596Z,101672.70
2018-12-05T01:38:32.083Z,101672.70
2018-12-05T01:39:34.559Z,101673.83
2018-12-05T01:40:37.053Z,101668.03
2018-12-05T01:41:39.569Z,101664.77
2018-12-05T01:42:42.096Z,101674.95
2018-12-05T01:43:47.592Z,101678.81
2018-12-05T01:44:54.055Z,101678.84
2018-12-05T01:45:56.547Z,101670.34
2018-12-05T01:46:59.045Z,101677.51
2018-12-05T01:48:01.603Z,101668.70
2018-12-05T01:49:04.230Z,101665.17
2018-12-05T01:50:06.855Z,101661.87
2018-12-05T01:51:09.350Z,101666.84
2018-12-05T01:52:11.877Z,101670.16
2018-12-05T01:53:14.369Z,101666.85
2018-12-05T01:54:16.894Z,101666.85
2018-12-05T01:55:19.406Z,101672.91
2018-12-05T01:56:22.000Z,101670.71
2018-12-05T01:57:24.467Z,101669.08
2018-12-05T01:58:26.981Z,101673.50
2018-12-05T01:59:29.468Z,101673.50
2018-12-05T02:00:32.094Z,101671.56
2018-12-05T02:01:34.605Z,101672.65
2018-12-05T02:02:37.108Z,101675.35
2018-12-05T02:03:39.831Z,101683.23
2018-12-05T02:04:42.321Z,101679.03
2018-12-05T02:05:44.802Z,101678.69
2018-12-05T02:06:47.290Z,101679.17
2018-12-05T02:07:49.765Z,101678.02
2018-12-05T02:08:52.313Z,101678.79
2018-12-05T02:09:54.847Z,101681.46
2018-12-05T02:10:57.383Z,101681.98
2018-12-05T02:11:59.881Z,101672.86
2018-12-05T02:13:02.380Z,101668.73
2018-12-05T02:14:05.077Z,101668.42
2018-12-05T02:15:07.619Z,101671.44
2018-12-05T02:16:10.114Z,101675.30
2018-12-05T02:17:12.695Z,101673.10
2018-12-05T02:18:15.193Z,101673.87
2018-12-05T02:19:17.703Z,101668.12
2018-12-05T02:20:20.164Z,101671.17
2018-12-05T02:21:22.639Z,101685.48
2018-12-05T02:22:25.131Z,101681.36
2018-12-05T02:23:27.657Z,101683.00
2018-12-05T02:24:30.187Z,101683.82
2018-12-05T02:25:32.644Z,101689.62
2018-12-05T02:26:35.131Z,101694.61
2018-12-05T02:27:37.615Z,101685.53
2018-12-05T02:28:40.098Z,101681.72
2018-12-05T02:29:48.281Z,101677.08
2018-12-05T02:30:50.763Z,101679.56
2018-12-05T02:31:53.284Z,101676.85
2018-12-05T02:32:55.796Z,101673.55
2018-12-05T02:33:58.292Z,101667.82
2018-12-05T02:35:00.809Z,101660.95
2018-12-05T02:36:03.282Z,101666.20
2018-12-05T02:37:05.775Z,101659.62
2018-12-05T02:38:08.259Z,101662.67
2018-12-05T02:39:10.767Z,101661.03
2018-12-05T02:40:13.411Z,101657.50
2018-12-05T02:41:15.954Z,101667.13
2018-12-05T02:42:18.436Z,101663.60
2018-12-05T02:43:20.930Z,101663.64
2018-12-05T02:44:23.413Z,101662.27
2018-12-05T02:45:26.014Z,101665.88
2018-12-05T02:46:28.511Z,101662.61
2018-12-05T02:47:30.991Z,101663.98
2018-12-05T02:48:34.336Z,101661.83
2018-12-05T02:49:36.823Z,101661.02
2018-12-05T02:50:39.323Z,101666.81
2018-12-05T02:51:41.865Z,101654.73
2018-12-05T02:52:44.432Z,101652.54
2018-12-05T02:53:46.937Z,101647.89
2018-12-05T02:54:49.426Z,101657.23
2018-12-05T02:55:51.937Z,101650.09
2018-12-05T02:56:54.414Z,101654.52
2018-12-05T02:57:56.891Z,101653.70
2018-12-05T02:58:59.357Z,101657.23
2018-12-05T03:00:01.836Z,101656.84
2018-12-05T03:01:04.340Z,101656.22
2018-12-05T03:02:06.835Z,101660.03
2018-12-05T03:03:09.300Z,101651.66
2018-12-05T03:04:11.765Z,101659.87
2018-12-05T03:05:14.333Z,101659.02
2018-12-05T03:06:16.833Z,101659.70
2018-12-05T03:07:19.365Z,101655.84
2018-12-05T03:08:21.836Z,101651.95
2018-12-05T03:09:24.347Z,101648.65
2018-12-05T03:10:26.835Z,101646.11
2018-12-05T03:11:29.342Z,101652.98
2018-12-05T03:12:31.881Z,101653.50
2018-12-05T03:13:34.396Z,101649.38
2018-12-05T03:14:36.868Z,101647.17
2018-12-05T03:15:39.367Z,101648.00
2018-12-05T03:16:41.881Z,101650.74
2018-12-05T03:17:44.348Z,101651.86
2018-12-05T03:18:46.857Z,101652.16
2018-12-05T03:19:49.321Z,101651.91
2018-12-05T03:20:51.813Z,101646.41
2018-12-05T03:21:54.311Z,101648.34
2018-12-05T03:22:56.791Z,101643.97
2018-12-05T03:23:59.267Z,101639.02
2018-12-05T03:25:01.820Z,101638.76
2018-12-05T03:26:04.364Z,101638.22
2018-12-05T03:27:06.885Z,101637.14
2018-12-05T03:28:09.419Z,101638.30
2018-12-05T03:29:11.896Z,101649.30
2018-12-05T03:30:14.384Z,101638.89
2018-12-05T03:31:16.883Z,101639.75
2018-12-05T03:32:19.460Z,101637.86
2018-12-05T03:33:21.937Z,101630.99
2018-12-05T03:34:24.419Z,101626.91
2018-12-05T03:35:32.433Z,101639.03
2018-12-05T03:36:34.930Z,101638.51
2018-12-05T03:37:37.428Z,101638.55
2018-12-05T03:38:39.926Z,101635.55
2018-12-05T03:39:42.396Z,101635.84
2018-12-05T03:40:44.879Z,101636.70
2018-12-05T03:41:47.362Z,101632.02
2018-12-05T03:42:49.877Z,101628.75
2018-12-05T03:43:52.344Z,101629.87
2018-12-05T03:44:54.800Z,101631.55
2018-12-05T03:45:57.264Z,101631.28
2018-12-05T03:46:59.761Z,101628.83
2018-12-05T03:48:02.262Z,101629.13
2018-12-05T03:49:04.926Z,101627.75
2018-12-05T03:50:07.583Z,101628.61
2018-12-05T03:51:10.075Z,101626.67
2018-12-05T03:52:12.537Z,101626.13
2018-12-05T03:53:15.049Z,101629.39
2018-12-05T03:54:17.509Z,101626.56
2018-12-05T03:55:20.220Z,101631.72
2018-12-05T03:56:22.887Z,101630.27
2018-12-05T03:57:25.447Z,101630.99
2018-12-05T03:58:27.924Z,101632.02
2018-12-05T03:59:30.416Z,101634.43
2018-12-05T04:00:32.991Z,101630.78
2018-12-05T04:01:35.491Z,101634.08
2018-12-05T04:02:38.016Z,101634.33
2018-12-05T04:03:40.493Z,101629.59
2018-12-05T04:04:42.998Z,101627.61
2018-12-05T04:05:45.490Z,101635.61
2018-12-05T04:06:47.970Z,101631.73
2018-12-05T04:07:50.452Z,101635.01
2018-12-05T04:08:52.977Z,101633.63
2018-12-05T04:09:55.458Z,101629.80
2018-12-05T04:10:57.943Z,101629.84
2018-12-05T04:12:00.459Z,101636.21
2018-12-05T04:13:02.961Z,101631.83
2018-12-05T04:14:05.554Z,101628.23
2018-12-05T04:15:08.183Z,101624.41
2018-12-05T04:16:10.667Z,101621.39
2018-12-05T04:17:13.166Z,101623.06
2018-12-05T04:18:15.639Z,101616.46
2018-12-05T04:19:18.151Z,101615.43
2018-12-05T04:20:20.651Z,101620.16
2018-12-05T04:21:23.155Z,101625.95
2018-12-05T04:22:25.616Z,101622.17
2018-12-05T04:23:28.121Z,101622.73
2018-12-05T04:24:30.718Z,101616.13
2018-12-05T04:25:33.221Z,101619.17
2018-12-05T04:26:35.699Z,101618.66
2018-12-05T04:27:38.179Z,101623.38
2018-12-05T04:28:40.660Z,101618.73
2018-12-05T04:29:43.177Z,101621.79
2018-12-05T04:30:45.654Z,101622.09
2018-12-05T04:31:48.128Z,101624.32
2018-12-05T04:32:50.586Z,101629.27
2018-12-05T04:33:53.048Z,101627.38
2018-12-05T04:34:55.561Z,101631.24
2018-12-05T04:35:58.022Z,101636.48
2018-12-05T04:37:00.503Z,101635.97
2018-12-05T04:38:02.965Z,101639.31
2018-12-05T04:39:08.282Z,101640.72
2018-12-05T04:40:10.769Z,101639.09
2018-12-05T04:41:13.246Z,101635.23
2018-12-05T04:42:15.723Z,101629.47
2018-12-05T04:43:18.230Z,101630.29
2018-12-05T04:44:20.733Z,101633.04
2018-12-05T04:45:23.251Z,101629.72
2018-12-05T04:46:25.711Z,101633.73
2018-12-05T04:47:28.193Z,101637.22
2018-12-05T04:48:30.731Z,101641.30
2018-12-05T04:49:33.208Z,101640.06
2018-12-05T04:50:35.726Z,101648.58
2018-12-05T04:51:38.228Z,101653.98
2018-12-05T04:52:40.711Z,101645.65
2018-12-05T04:53:43.202Z,101647.53
2018-12-05T04:54:45.664Z,101641.17
2018-12-05T04:55:48.181Z,101642.19
2018-12-05T04:56:50.755Z,101641.38
2018-12-05T04:57:53.235Z,101641.88
2018-12-05T04:58:56.068Z,101643.78
2018-12-05T04:59:58.570Z,101643.27
2018-12-05T05:01:03.811Z,101641.07
2018-12-05T05:02:06.888Z,101637.50
2018-12-05T05:03:09.375Z,101638.06
2018-12-05T05:04:12.095Z,101636.73
2018-12-05T05:05:14.558Z,101636.47
2018-12-05T05:06:17.065Z,101638.97
2018-12-05T05:07:19.555Z,101639.22
2018-12-05T05:08:22.024Z,101639.80
2018-12-05T05:09:24.487Z,101635.15
2018-12-05T05:10:26.967Z,101633.25
2018-12-05T05:11:29.476Z,101639.33
2018-12-05T05:12:31.973Z,101643.50
2018-12-05T05:13:34.451Z,101638.86
2018-12-05T05:14:36.930Z,101639.16
2018-12-05T05:15:39.710Z,101634.52
2018-12-05T05:16:42.225Z,101630.69
2018-12-05T05:17:44.743Z,101626.56
2018-12-05T05:18:47.375Z,101623.05
2018-12-05T05:19:49.929Z,101616.72
2018-12-05T05:20:52.443Z,101618.44
2018-12-05T05:21:54.994Z,101618.73
2018-12-05T05:22:57.481Z,101621.53
2018-12-05T05:23:59.943Z,101617.72
2018-12-05T05:25:02.433Z,101619.13
2018-12-05T05:26:04.897Z,101618.05
2018-12-05T05:27:07.466Z,101621.10
2018-12-05T05:28:10.078Z,101618.95
2018-12-05T05:29:12.552Z,101618.42
2018-12-05T05:30:15.046Z,101616.80
2018-12-05T05:31:17.543Z,101614.05
2018-12-05T05:32:20.060Z,101619.84
2018-12-05T05:33:22.553Z,101616.58
2018-12-05T05:34:25.146Z,101611.38
2018-12-05T05:35:27.760Z,101610.56
2018-12-05T05:36:30.253Z,101605.02
2018-12-05T05:37:32.802Z,101611.03
2018-12-05T05:38:35.286Z,101604.08
2018-12-05T05:39:37.767Z,101609.45
2018-12-05T05:40:40.250Z,101613.23
2018-12-05T05:41:42.736Z,101610.66
2018-12-05T05:42:45.259Z,101608.67
2018-12-05T05:43:47.740Z,101603.61
2018-12-05T05:44:50.266Z,101606.05
2018-12-05T05:45:52.733Z,101601.06
2018-12-05T05:46:55.195Z,101602.69
2018-12-05T05:47:57.677Z,101603.51
2018-12-05T05:49:00.151Z,101598.52
2018-12-05T05:50:02.689Z,101595.20
2018-12-05T05:51:05.254Z,101597.14
2018-12-05T05:52:07.746Z,101593.30
2018-12-05T05:53:10.266Z,101594.39
2018-12-05T05:54:12.739Z,101593.02
2018-12-05T05:55:15.215Z,101592.20
2018-12-05T05:56:17.722Z,101586.70
2018-12-05T05:57:20.201Z,101589.75
2018-12-05T05:58:22.717Z,101585.94
2018-12-05T05:59:25.199Z,101590.92
2018-12-05T06:00:27.849Z,101587.09
2018-12-05T06:01:30.387Z,101583.27
2018-12-05T06:02:32.949Z,101585.77
2018-12-05T06:03:35.494Z,101583.88
2018-12-05T06:04:38.090Z,101589.42
2018-12-05T06:05:40.668Z,101586.42
2018-12-05T06:06:43.302Z,101590.84
2018-12-05T06:07:45.790Z,101595.28
2018-12-05T06:08:48.316Z,101592.23
2018-12-05T06:09:50.998Z,101595.84
2018-12-05T06:10:53.495Z,101592.57
2018-12-05T06:11:56.070Z,101590.38
2018-12-05T06:12:58.560Z,101591.23
2018-12-05T06:14:01.080Z,101593.73
2018-12-05T06:15:04.280Z,101588.56
2018-12-05T06:16:06.755Z,101589.39
2018-12-05T06:17:09.231Z,101595.20
2018-12-05T06:18:11.711Z,101588.36
2018-12-05T06:19:14.213Z,101590.89
2018-12-05T06:20:16.683Z,101596.43
2018-12-05T06:21:19.160Z,101593.16
2018-12-05T06:22:21.636Z,101598.41
2018-12-05T06:23:24.119Z,101587.71
2018-12-05T06:24:26.615Z,101588.31
2018-12-05T06:25:29.096Z,101587.79
2018-12-05T06:26:31.579Z,101590.02
2018-12-05T06:27:34.076Z,101589.50
2018-12-05T06:28:36.556Z,101587.27
2018-12-05T06:29:39.061Z,101590.84
2018-12-05T06:30:41.546Z,101592.44
2018-12-05T06:31:44.022Z,101595.36
2018-12-05T06:32:46.505Z,101593.86
2018-12-05T06:33:48.964Z,101592.95
2018-12-05T06:34:51.627Z,101595.62
2018-12-05T06:35:54.287Z,101599.14
2018-12-05T06:36:56.833Z,101598.53
2018-12-05T06:37:59.345Z,101603.17
2018-12-05T06:39:01.813Z,101596.30
2018-12-05T06:40:05.747Z,101604.81
2018-12-05T06:41:08.212Z,101594.28
2018-12-05T06:42:10.690Z,101597.59
2018-12-05T06:43:13.193Z,101603.09
2018-12-05T06:44:15.656Z,101604.47
2018-12-05T06:45:18.174Z,101606.40
2018-12-05T06:46:20.679Z,101605.02
2018-12-05T06:47:23.177Z,101614.14
2018-12-05T06:48:25.672Z,101606.19
2018-12-05T06:49:28.165Z,101605.37
2018-12-05T06:50:30.743Z,101605.06
2018-12-05T06:51:33.226Z,101602.62
2018-12-05T06:52:35.719Z,101612.55
2018-12-05T06:53:38.220Z,101605.92
2018-12-05T06:54:40.713Z,101606.75
2018-12-05T06:55:43.215Z,101605.88
2018-12-05T06:56:45.721Z,101607.27
2018-12-05T06:57:48.212Z,101607.00
2018-12-05T06:58:50.801Z,101600.73
2018-12-05T06:59:53.335Z,101601.00
2018-12-05T07:00:55.832Z,101605.16
2018-12-05T07:01:58.333Z,101604.09
2018-12-05T07:03:00.811Z,101601.67
2018-12-05T07:04:03.412Z,101605.84
2018-12-05T07:05:06.242Z,101608.08
2018-12-05T07:06:08.750Z,101610.57
2018-12-05T07:07:11.249Z,101604.27
2018-12-05T07:08:13.727Z,101607.31
2018-12-05T07:09:16.210Z,101613.11
2018-12-05T07:10:18.687Z,101618.35
2018-12-05T07:11:21.209Z,101619.20
2018-12-05T07:12:23.701Z,101618.69
2018-12-05T07:13:26.207Z,101618.98
2018-12-05T07:14:28.702Z,101617.35
2018-12-05T07:15:31.554Z,101614.60
2018-12-05T07:16:34.044Z,101626.42
2018-12-05T07:17:41.239Z,101626.64
2018-12-05T07:18:43.719Z,101631.24
2018-12-05T07:19:46.210Z,101631.72
2018-12-05T07:20:48.722Z,101633.01
2018-12-05T07:21:51.217Z,101625.53
2018-12-05T07:22:53.696Z,101624.38
2018-12-05T07:23:56.175Z,101620.45
2018-12-05T07:24:58.656Z,101618.52
2018-12-05T07:26:01.136Z,101615.25
2018-12-05T07:27:03.615Z,101625.14
2018-12-05T07:28:06.091Z,101620.16
2018-12-05T07:29:08.563Z,101622.91
2018-12-05T07:30:11.021Z,101623.42
2018-12-05T07:31:13.503Z,101620.16
2018-12-05T07:32:15.994Z,101626.47
2018-12-05T07:33:18.466Z,101626.22
2018-12-05T07:34:20.959Z,101626.26
2018-12-05T07:35:23.425Z,101630.98
2018-12-05T07:36:25.917Z,101629.62
2018-12-05T07:37:28.445Z,101624.42
2018-12-05T07:38:31.157Z,101622.52
2018-12-05T07:39:33.647Z,101619.55
2018-12-05T07:40:36.127Z,101611.61
2018-12-05T07:41:38.623Z,101615.77
2018-12-05T07:42:41.105Z,101610.84
2018-12-05T07:43:43.581Z,101618.02
2018-12-05T07:44:46.059Z,101617.49
2018-12-05T07:45:48.553Z,101616.41
2018-12-05T07:46:51.039Z,101620.84
2018-12-05T07:47:53.517Z,101604.38
2018-12-05T07:48:55.997Z,101607.73
2018-12-05T07:49:58.489Z,101605.80
2018-12-05T07:51:00.986Z,101612.45
2018-12-05T07:52:03.609Z,101610.30
2018-12-05T07:53:06.128Z,101613.91
2018-12-05T07:54:08.675Z,101610.64
2018-12-05T07:55:11.159Z,101606.55
2018-12-05T07:56:13.637Z,101604.06
2018-12-05T07:57:16.117Z,101604.92
2018-12-05T07:58:18.615Z,101605.52
2018-12-05T07:59:21.105Z,101609.12
2018-12-05T08:00:23.571Z,101606.41
2018-12-05T08:01:26.059Z,101601.20
2018-12-05T08:02:28.548Z,101599.05
2018-12-05T08:03:31.090Z,101599.31
2018-12-05T08:04:33.683Z,101595.49
2018-12-05T08:05:36.203Z,101590.59
2018-12-05T08:06:38.744Z,101589.52
2018-12-05T08:07:41.323Z,101592.00
2018-12-05T08:08:43.966Z,101595.34
2018-12-05T08:09:46.471Z,101591.48
2018-12-05T08:10:49.075Z,101588.47
2018-12-05T08:11:52.080Z,101592.59
2018-12-05T08:12:54.565Z,101586.02
2018-12-05T08:13:57.139Z,101588.51
2018-12-05T08:14:59.657Z,101585.50
2018-12-05T08:16:02.143Z,101584.42
2018-12-05T08:17:04.618Z,101585.83
2018-12-05T08:18:07.128Z,101578.70
2018-12-05T08:19:09.600Z,101573.24
2018-12-05T08:20:12.148Z,101575.99
2018-12-05T08:21:14.615Z,101574.62
2018-12-05T08:22:17.096Z,101569.98
2018-12-05T08:23:19.641Z,101575.47
2018-12-05T08:24:22.104Z,101569.45
2018-12-05T08:25:24.602Z,101571.12
2018-12-05T08:26:27.076Z,101570.05
2018-12-05T08:27:29.643Z,101563.47
2018-12-05T08:28:32.251Z,101562.66
2018-12-05T08:29:34.774Z,101562.95
2018-12-05T08:30:37.394Z,101563.51
2018-12-05T08:31:39.958Z,101557.49
2018-12-05T08:32:42.469Z,101561.88
2018-12-05T08:33:45.035Z,101553.38
2018-12-05T08:34:47.515Z,101550.37
2018-12-05T08:35:50.023Z,101550.66
2018-12-05T08:36:52.507Z,101547.66
2018-12-05T08:37:54.994Z,101549.88
2018-12-05T08:38:57.503Z,101549.61
2018-12-05T08:39:59.979Z,101548.80
2018-12-05T08:41:02.468Z,101551.02
2018-12-05T08:42:04.935Z,101554.33
2018-12-05T08:43:07.396Z,101550.50
2018-12-05T08:44:09.887Z,101554.36
2018-12-05T08:45:12.468Z,101552.16
2018-12-05T08:46:15.018Z,101547.75
2018-12-05T08:47:17.478Z,101543.92
2018-12-05T08:48:19.958Z,101546.15
2018-12-05T08:49:22.465Z,101545.33
2018-12-05T08:50:25.083Z,101544.81
2018-12-05T08:51:27.638Z,101548.66
2018-12-05T08:52:30.140Z,101548.66
2018-12-05T08:53:32.619Z,101545.39
2018-12-05T08:54:35.141Z,101549.80
2018-12-05T08:55:37.608Z,101551.73
2018-12-05T08:56:40.087Z,101547.91
2018-12-05T08:57:42.561Z,101548.46
2018-12-05T08:58:45.039Z,101546.83
2018-12-05T08:59:47.549Z,101547.09
2018-12-05T09:00:50.093Z,101545.45
2018-12-05T09:01:52.587Z,101546.01
2018-12-05T09:02:55.075Z,101544.93
2018-12-05T09:03:57.565Z,101546.59
2018-12-05T09:05:00.054Z,101546.89
2018-12-05T09:06:02.538Z,101545.52
2018-12-05T09:07:05.003Z,101545.81
2018-12-05T09:08:07.492Z,101546.07
2018-12-05T09:09:09.982Z,101542.80
2018-12-05T09:10:12.491Z,101543.91
2018-12-05T09:11:15.059Z,101539.53
2018-12-05T09:12:17.551Z,101543.38
2018-12-05T09:13:20.034Z,101540.64
2018-12-05T09:14:28.631Z,101540.11
2018-12-05T09:15:27.116Z,101546.97
2018-12-05T09:16:29.613Z,101548.61
2018-12-05T09:17:32.109Z,101546.68
2018-12-05T09:18:34.607Z,101546.97
2018-12-05T09:19:37.134Z,101540.66
2018-12-05T09:20:39.677Z,101548.90
2018-12-05T09:21:42.189Z,101551.38
2018-12-05T09:22:44.686Z,101549.48
2018-12-05T09:23:47.543Z,101545.36
2018-12-05T09:24:50.050Z,101541.54
2018-12-05T09:25:52.567Z,101543.47
2018-12-05T09:26:55.078Z,101540.20
2018-12-05T09:27:57.559Z,101542.94
2018-12-05T09:29:00.035Z,101541.30
2018-12-05T09:30:02.514Z,101539.67
2018-12-05T09:31:05.000Z,101530.06
2018-12-05T09:32:07.460Z,101527.88
2018-12-05T09:33:09.930Z,101524.61
2018-12-05T09:34:12.407Z,101519.64
2018-12-05T09:35:14.929Z,101517.45
2018-12-05T09:36:17.473Z,101518.27
2018-12-05T09:37:19.964Z,101516.64
2018-12-05T09:38:22.539Z,101516.90
2018-12-05T09:39:25.000Z,101516.38
2018-12-05T09:40:27.468Z,101510.88
2018-12-05T09:41:29.967Z,101510.88
2018-12-05T09:42:32.448Z,101508.14
2018-12-05T09:43:34.912Z,101512.55
2018-12-05T09:44:37.372Z,101509.80
2018-12-05T09:45:39.854Z,101510.09
2018-12-05T09:46:42.342Z,101504.61
2018-12-05T09:47:44.823Z,101500.78
2018-12-05T09:48:47.303Z,101498.05
2018-12-05T09:49:50.036Z,101496.41
2018-12-05T09:50:52.558Z,101497.52
2018-12-05T09:51:55.112Z,101498.89
2018-12-05T09:52:57.599Z,101498.63
2018-12-05T09:54:00.107Z,101502.47
2018-12-05T09:55:02.692Z,101498.09
2018-12-05T09:56:05.220Z,101495.36
2018-12-05T09:57:07.751Z,101489.02
2018-12-05T09:58:10.263Z,101490.95
2018-12-05T09:59:12.747Z,101488.20
2018-12-05T10:00:15.248Z,101483.01
2018-12-05T10:01:18.731Z,101482.45
2018-12-05T10:02:21.212Z,101483.56
2018-12-05T10:03:23.841Z,101483.30
2018-12-05T10:04:26.346Z,101487.97
2018-12-05T10:05:28.838Z,101486.33
2018-12-05T10:06:31.319Z,101484.96
2018-12-05T10:07:33.815Z,101478.13
2018-12-05T10:08:36.297Z,101477.84
2018-12-05T10:09:38.793Z,101484.17
2018-12-05T10:10:41.304Z,101479.80
2018-12-05T10:11:43.809Z,101475.13
2018-12-05T10:12:46.329Z,101473.49
2018-12-05T10:13:48.861Z,101477.61
2018-12-05T10:14:51.379Z,101471.30
2018-12-05T10:15:53.846Z,101469.12
2018-12-05T10:16:56.321Z,101471.04
2018-12-05T10:17:58.801Z,101468.03
2018-12-05T10:19:01.282Z,101470.52
2018-12-05T10:20:04.023Z,101467.77
2018-12-05T10:21:06.507Z,101474.08
2018-12-05T10:22:09.003Z,101468.88
2018-12-05T10:23:11.504Z,101475.73
2018-12-05T10:24:14.005Z,101475.73
2018-12-05T10:25:16.591Z,101473.25
2018-12-05T10:26:19.137Z,101481.48
2018-12-05T10:27:21.648Z,101475.73
2018-12-05T10:28:24.141Z,101483.95
2018-12-05T10:29:26.640Z,101474.09
2018-12-05T10:30:29.199Z,101482.06
2018-12-05T10:31:31.681Z,101480.69
2018-12-05T10:32:34.169Z,101479.05
2018-12-05T10:33:36.678Z,101484.54
2018-12-05T10:34:39.141Z,101480.16
2018-12-05T10:35:41.639Z,101485.64
2018-12-05T10:36:44.119Z,101484.83
2018-12-05T10:37:46.594Z,101482.09
2018-12-05T10:38:49.113Z,101483.19
2018-12-05T10:39:51.649Z,101482.38
2018-12-05T10:40:54.117Z,101473.33
2018-12-05T10:41:56.572Z,101473.63
2018-12-05T10:42:59.136Z,101461.84
2018-12-05T10:44:01.650Z,101460.75
2018-12-05T10:45:04.973Z,101455.83
2018-12-05T10:46:07.526Z,101448.42
2018-12-05T10:47:09.992Z,101448.16
2018-12-05T10:48:12.544Z,101445.97
2018-12-05T10:49:15.175Z,101444.33
2018-12-05T10:50:17.708Z,101440.22
2018-12-05T10:51:20.190Z,101438.00
2018-12-05T10:52:22.729Z,101433.07
2018-12-05T10:53:25.222Z,101431.70
2018-12-05T10:54:27.787Z,101421.58
2018-12-05T10:55:30.253Z,101419.66
2018-12-05T10:56:32.759Z,101418.02
2018-12-05T10:57:35.238Z,101412.54
2018-12-05T10:58:37.738Z,101420.50
2018-12-05T10:59:40.305Z,101413.65
2018-12-05T11:00:48.583Z,101422.16
2018-12-05T11:01:57.459Z,101419.97
2018-12-05T11:03:05.498Z,101418.34
2018-12-05T11:04:13.655Z,101416.41
2018-12-05T11:05:27.022Z,101414.23
2018-12-05T11:06:35.184Z,101412.59
2018-12-05T11:07:43.283Z,101413.15
2018-12-05T11:08:51.511Z,101410.70
2018-12-05T11:09:59.731Z,101408.22
2018-12-05T11:11:07.820Z,101406.32
2018-12-05T11:12:15.874Z,101406.87
2018-12-05T11:13:24.089Z,101403.32
2018-12-05T11:16:10.347Z,101402.79
2018-12-05T11:17:18.382Z,101401.42
2018-12-05T11:18:26.529Z,101398.94
2018-12-05T11:19:34.639Z,101399.20
2018-12-05T11:20:42.773Z,101395.38
2018-12-05T11:21:50.991Z,101393.19
2018-12-05T11:22:59.182Z,101394.56
2018-12-05T11:24:05.127Z,101389.37
2018-12-05T11:25:07.975Z,101383.89
2018-12-05T11:26:12.431Z,101379.52
2018-12-05T11:27:15.015Z,101384.44
2018-12-05T11:28:17.491Z,101382.81
2018-12-05T11:29:19.968Z,101380.07
2018-12-05T11:30:22.475Z,101374.88
2018-12-05T11:31:25.031Z,101374.33
2018-12-05T11:32:27.507Z,101372.69
2018-12-05T11:33:29.998Z,101371.32
2018-12-05T11:34:32.479Z,101369.95
2018-12-05T11:35:36.226Z,101365.02
2018-12-05T11:36:39.074Z,101369.69
2018-12-05T11:37:41.637Z,101364.77
2018-12-05T11:38:44.118Z,101363.39
2018-12-05T11:39:46.605Z,101361.20
2018-12-05T11:40:49.136Z,101363.13
2018-12-05T11:41:51.750Z,101359.57
2018-12-05T11:42:54.238Z,101361.50
2018-12-05T11:43:56.745Z,101362.05
2018-12-05T11:44:59.297Z,101362.87
2018-12-05T11:46:01.786Z,101368.08
2018-12-05T11:47:04.312Z,101359.05
2018-12-05T11:48:06.796Z,101360.41
2018-12-05T11:49:09.294Z,101360.97
2018-12-05T11:50:11.787Z,101357.41
2018-12-05T11:51:14.339Z,101351.38
2018-12-05T11:53:18.608Z,101348.38
2018-12-05T11:54:21.081Z,101343.16
2018-12-05T11:55:23.551Z,101344.52
2018-12-05T11:56:26.040Z,101346.70
2018-12-05T11:57:28.517Z,101344.27
2018-12-05T11:58:31.050Z,101342.07